createdAt,value
2017-10-01T00:01:53.360Z,99121.22
2017-10-01T00:04:29.753Z,99127.50
2017-10-01T00:07:01.634Z,99123.94
2017-10-01T00:12:10.228Z,99135.30
2017-10-01T00:14:45.917Z,99123.14
2017-10-01T00:17:17.366Z,99124.89
2017-10-01T00:19:51.275Z,99125.19
2017-10-01T00:22:23.122Z,99133.82
2017-10-01T00:24:55.214Z,99132.47
2017-10-01T00:27:26.561Z,99140.16
2017-10-01T00:29:57.216Z,99138.66
2017-10-01T00:32:28.247Z,99139.80
2017-10-01T00:34:59.200Z,99138.16
2017-10-01T00:37:32.381Z,99137.33
2017-10-01T00:40:04.289Z,99135.92
2017-10-01T00:42:34.901Z,99132.41
2017-10-01T00:45:09.838Z,99138.75
2017-10-01T00:47:41.509Z,99142.81
2017-10-01T00:50:12.733Z,99148.48
2017-10-01T00:52:43.326Z,99146.69
2017-10-01T00:55:14.874Z,99146.89
2017-10-01T00:57:46.322Z,99147.75
2017-10-01T01:00:17.963Z,99152.38
2017-10-01T01:02:52.246Z,99156.59
2017-10-01T01:05:24.750Z,99158.64
2017-10-01T01:07:56.011Z,99157.98
2017-10-01T01:10:27.720Z,99152.08
2017-10-01T01:12:59.022Z,99158.84
2017-10-01T01:15:30.122Z,99159.69
2017-10-01T01:18:01.531Z,99158.27
2017-10-01T01:20:32.728Z,99162.01
2017-10-01T01:23:04.264Z,99167.48
2017-10-01T01:25:35.671Z,99173.65
2017-10-01T01:28:07.490Z,99168.88
2017-10-01T01:30:38.982Z,99169.69
2017-10-01T01:33:09.794Z,99173.30
2017-10-01T01:35:43.019Z,99168.45
2017-10-01T01:38:16.764Z,99167.81
2017-10-01T01:40:49.805Z,99173.71
2017-10-01T01:43:21.075Z,99178.09
2017-10-01T01:45:54.311Z,99177.16
2017-10-01T01:48:25.625Z,99176.95
2017-10-01T01:50:57.430Z,99182.78
2017-10-01T01:53:28.582Z,99190.23
2017-10-01T01:56:00.009Z,99194.25
2017-10-01T01:58:31.617Z,99196.02
2017-10-01T02:01:03.385Z,99196.48
2017-10-01T02:03:34.898Z,99199.19
2017-10-01T02:06:07.912Z,99202.08
2017-10-01T02:08:59.007Z,99212.50
2017-10-01T02:11:30.262Z,99209.39
2017-10-01T02:14:01.958Z,99211.94
2017-10-01T02:16:34.217Z,99211.48
2017-10-01T02:19:08.718Z,99216.50
2017-10-01T02:21:39.840Z,99226.63
2017-10-01T02:24:11.056Z,99224.80
2017-10-01T02:26:41.512Z,99232.23
2017-10-01T02:29:13.752Z,99236.45
2017-10-01T02:31:45.158Z,99233.74
2017-10-01T02:34:16.894Z,99246.14
2017-10-01T02:36:53.642Z,99253.94
2017-10-01T02:39:24.925Z,99255.14
2017-10-01T02:41:56.175Z,99254.65
2017-10-01T02:44:27.870Z,99260.20
2017-10-01T02:46:58.716Z,99259.14
2017-10-01T02:49:30.308Z,99266.75
2017-10-01T02:52:06.258Z,99261.95
2017-10-01T02:54:37.318Z,99264.45
2017-10-01T02:57:08.545Z,99271.81
2017-10-01T02:59:40.529Z,99266.73
2017-10-01T03:02:11.716Z,99276.37
2017-10-01T03:04:44.886Z,99275.41
2017-10-01T03:07:15.879Z,99277.34
2017-10-01T03:09:49.309Z,99284.91
2017-10-01T03:12:20.897Z,99289.98
2017-10-01T03:14:56.784Z,99290.89
2017-10-01T03:17:29.714Z,99292.55
2017-10-01T03:20:01.124Z,99296.43
2017-10-01T03:25:23.877Z,99297.67
2017-10-01T03:27:55.736Z,99300.16
2017-10-01T03:30:27.954Z,99304.16
2017-10-01T03:33:00.549Z,99302.65
2017-10-01T03:35:32.216Z,99311.86
2017-10-01T03:38:04.393Z,99313.26
2017-10-01T03:40:35.697Z,99319.73
2017-10-01T03:43:07.242Z,99318.78
2017-10-01T03:45:41.643Z,99323.35
2017-10-01T03:48:12.768Z,99326.33
2017-10-01T03:50:43.659Z,99327.22
2017-10-01T03:53:15.938Z,99330.53
2017-10-01T03:58:24.685Z,99332.97
2017-10-01T04:00:57.089Z,99330.44
2017-10-01T04:03:28.168Z,99335.99
2017-10-01T04:05:59.881Z,99336.66
2017-10-01T04:08:31.259Z,99341.51
2017-10-01T04:11:02.838Z,99343.06
2017-10-01T04:13:34.139Z,99345.31
2017-10-01T04:16:04.902Z,99346.45
2017-10-01T04:18:36.871Z,99349.59
2017-10-01T04:21:10.167Z,99350.97
2017-10-01T04:23:41.072Z,99352.92
2017-10-01T04:26:13.598Z,99347.99
2017-10-01T04:28:45.186Z,99349.55
2017-10-01T04:31:16.296Z,99357.33
2017-10-01T04:33:49.430Z,99354.16
2017-10-01T04:36:25.758Z,99361.39
2017-10-01T04:38:59.647Z,99365.32
2017-10-01T04:44:14.834Z,99362.23
2017-10-01T04:47:02.754Z,99370.63
2017-10-01T04:49:33.492Z,99371.31
2017-10-01T04:52:05.152Z,99374.94
2017-10-01T04:54:38.192Z,99376.71
2017-10-01T04:57:09.473Z,99380.18
2017-10-01T04:59:44.052Z,99383.55
2017-10-01T05:02:15.315Z,99386.84
2017-10-01T05:04:46.875Z,99376.84
2017-10-01T05:07:17.910Z,99382.83
2017-10-01T05:09:53.089Z,99378.07
2017-10-01T05:12:24.745Z,99382.14
2017-10-01T05:14:56.581Z,99382.61
2017-10-01T05:17:27.645Z,99386.84
2017-10-01T05:19:58.669Z,99382.65
2017-10-01T05:22:30.379Z,99386.63
2017-10-01T05:25:01.561Z,99380.82
2017-10-01T05:27:35.982Z,99383.42
2017-10-01T05:30:08.045Z,99386.13
2017-10-01T05:32:39.266Z,99388.94
2017-10-01T05:35:10.640Z,99383.94
2017-10-01T05:37:41.798Z,99383.02
2017-10-01T05:40:12.572Z,99376.91
2017-10-01T05:42:42.946Z,99382.10
2017-10-01T05:45:14.125Z,99388.45
2017-10-01T05:47:45.449Z,99390.16
2017-10-01T05:50:16.441Z,99389.97
2017-10-01T05:55:27.862Z,99400.89
2017-10-01T05:58:01.583Z,99408.47
2017-10-01T06:00:33.165Z,99409.59
2017-10-01T06:03:07.508Z,99417.31
2017-10-01T06:05:41.189Z,99415.85
2017-10-01T06:08:13.261Z,99420.62
2017-10-01T06:10:46.500Z,99419.70
2017-10-01T06:13:20.015Z,99422.22
2017-10-01T06:15:55.707Z,99430.14
2017-10-01T06:18:28.668Z,99438.58
2017-10-01T06:21:00.929Z,99441.05
2017-10-01T06:23:35.816Z,99444.19
2017-10-01T06:26:08.301Z,99443.78
2017-10-01T06:28:45.059Z,99443.34
2017-10-01T06:31:17.139Z,99446.37
2017-10-01T06:33:53.520Z,99451.57
2017-10-01T06:36:24.596Z,99453.46
2017-10-01T06:38:55.894Z,99454.23
2017-10-01T06:41:27.333Z,99457.83
2017-10-01T06:44:02.042Z,99457.25
2017-10-01T06:46:33.525Z,99459.22
2017-10-01T06:49:04.923Z,99468.98
2017-10-01T06:51:35.982Z,99469.10
2017-10-01T06:54:07.824Z,99471.94
2017-10-01T06:56:38.637Z,99477.70
2017-10-01T06:59:10.269Z,99484.03
2017-10-01T07:01:41.661Z,99476.36
2017-10-01T07:04:12.111Z,99476.53
2017-10-01T07:06:46.002Z,99482.50
2017-10-01T07:09:26.003Z,99471.82
2017-10-01T07:12:02.975Z,99476.53
2017-10-01T07:14:34.537Z,99483.13
2017-10-01T07:17:05.386Z,99488.10
2017-10-01T07:19:37.234Z,99489.48
2017-10-01T07:22:08.733Z,99489.80
2017-10-01T07:24:40.559Z,99499.85
2017-10-01T07:27:12.190Z,99498.25
2017-10-01T07:29:43.525Z,99505.05
2017-10-01T07:32:14.642Z,99507.78
2017-10-01T07:34:50.110Z,99512.19
2017-10-01T07:37:21.040Z,99512.34
2017-10-01T07:39:55.328Z,99515.54
2017-10-01T07:42:33.643Z,99517.41
2017-10-01T07:45:12.227Z,99517.55
2017-10-01T07:47:43.104Z,99514.95
2017-10-01T07:50:14.342Z,99514.06
2017-10-01T07:52:44.982Z,99511.39
2017-10-01T07:55:16.007Z,99511.97
2017-10-01T07:57:53.680Z,99518.36
2017-10-01T08:00:24.902Z,99514.95
2017-10-01T08:02:56.349Z,99519.23
2017-10-01T08:05:27.400Z,99524.75
2017-10-01T08:07:58.134Z,99513.33
2017-10-01T08:10:28.805Z,99518.23
2017-10-01T08:13:01.124Z,99517.39
2017-10-01T08:15:34.434Z,99525.77
2017-10-01T08:18:07.620Z,99524.67
2017-10-01T08:20:38.657Z,99525.95
2017-10-01T08:23:09.237Z,99542.16
2017-10-01T08:25:39.726Z,99531.53
2017-10-01T08:28:20.797Z,99535.90
2017-10-01T08:30:57.192Z,99529.48
2017-10-01T08:33:27.710Z,99534.26
2017-10-01T08:36:03.557Z,99533.41
2017-10-01T08:38:40.291Z,99535.64
2017-10-01T08:41:16.864Z,99538.09
2017-10-01T08:43:51.083Z,99530.14
2017-10-01T08:46:22.539Z,99534.13
2017-10-01T08:48:58.184Z,99539.00
2017-10-01T08:51:28.932Z,99541.55
2017-10-01T08:56:47.948Z,99543.28
2017-10-01T08:59:27.359Z,99536.98
2017-10-01T09:01:59.605Z,99532.42
2017-10-01T09:04:31.879Z,99532.06
2017-10-01T09:07:07.120Z,99545.94
2017-10-01T09:09:43.559Z,99547.27
2017-10-01T09:12:14.569Z,99544.34
2017-10-01T09:14:51.202Z,99546.03
2017-10-01T09:17:22.589Z,99546.63
2017-10-01T09:19:55.165Z,99543.55
2017-10-01T09:22:26.240Z,99535.44
2017-10-01T09:28:01.531Z,99537.17
2017-10-01T09:30:33.034Z,99543.04
2017-10-01T09:33:04.004Z,99546.31
2017-10-01T09:35:35.811Z,99541.91
2017-10-01T09:38:06.835Z,99544.16
2017-10-01T09:40:37.421Z,99543.81
2017-10-01T09:43:08.959Z,99541.25
2017-10-01T09:45:45.979Z,99541.77
2017-10-01T09:48:16.856Z,99549.05
2017-10-01T09:50:52.517Z,99542.38
2017-10-01T09:53:24.733Z,99533.77
2017-10-01T09:55:57.987Z,99537.45
2017-10-01T09:58:30.763Z,99531.28
2017-10-01T10:01:04.770Z,99529.91
2017-10-01T10:03:41.928Z,99537.09
2017-10-01T10:06:39.246Z,99535.41
2017-10-01T10:09:20.738Z,99538.65
2017-10-01T10:12:00.757Z,99540.40
2017-10-01T10:14:45.766Z,99546.97
2017-10-01T10:17:18.882Z,99542.23
2017-10-01T10:19:52.946Z,99536.25
2017-10-01T10:22:23.470Z,99543.58
2017-10-01T10:24:55.305Z,99532.63
2017-10-01T10:27:26.097Z,99533.69
2017-10-01T10:29:57.075Z,99532.00
2017-10-01T10:32:27.499Z,99526.69
2017-10-01T10:34:58.198Z,99528.04
2017-10-01T10:37:29.130Z,99530.36
2017-10-01T10:40:00.439Z,99531.20
2017-10-01T10:42:31.637Z,99529.54
2017-10-01T10:45:02.990Z,99527.19
2017-10-01T10:47:33.986Z,99523.44
2017-10-01T10:50:08.478Z,99532.71
2017-10-01T10:52:39.373Z,99535.91
2017-10-01T10:55:11.047Z,99536.86
2017-10-01T10:57:42.593Z,99542.17
2017-10-01T11:00:17.215Z,99536.75
2017-10-01T11:02:48.233Z,99536.98
2017-10-01T11:05:19.203Z,99537.92
2017-10-01T11:07:49.855Z,99531.73
2017-10-01T11:10:20.708Z,99530.08
2017-10-01T11:12:51.340Z,99525.73
2017-10-01T11:15:22.114Z,99531.71
2017-10-01T11:17:52.713Z,99529.54
2017-10-01T11:20:23.369Z,99520.87
2017-10-01T11:22:54.824Z,99528.06
2017-10-01T11:25:26.159Z,99525.12
2017-10-01T11:28:03.465Z,99524.75
2017-10-01T11:30:35.242Z,99532.56
2017-10-01T11:33:06.801Z,99529.98
2017-10-01T11:35:37.491Z,99526.78
2017-10-01T11:38:09.317Z,99525.60
2017-10-01T11:40:42.138Z,99523.78
2017-10-01T11:43:13.730Z,99514.06
2017-10-01T11:45:44.256Z,99514.74
2017-10-01T11:48:18.494Z,99507.06
2017-10-01T11:50:49.534Z,99511.78
2017-10-01T11:53:21.149Z,99512.30
2017-10-01T11:55:52.804Z,99510.46
2017-10-01T11:58:24.141Z,99502.58
2017-10-01T12:00:54.888Z,99510.91
2017-10-01T12:03:25.546Z,99500.91
2017-10-01T12:05:57.114Z,99493.92
2017-10-01T12:08:28.009Z,99500.11
2017-10-01T12:10:59.086Z,99495.83
2017-10-01T12:13:30.267Z,99508.16
2017-10-01T12:16:01.283Z,99505.78
2017-10-01T12:18:32.381Z,99509.83
2017-10-01T12:21:03.617Z,99505.14
2017-10-01T12:23:35.521Z,99496.27
2017-10-01T12:26:06.642Z,99497.92
2017-10-01T12:28:37.090Z,99500.10
2017-10-01T12:31:08.742Z,99490.08
2017-10-01T12:33:40.102Z,99494.74
2017-10-01T12:36:10.976Z,99495.25
2017-10-01T12:38:42.049Z,99500.61
2017-10-01T12:41:14.043Z,99492.09
2017-10-01T12:43:46.194Z,99499.86
2017-10-01T12:46:18.923Z,99503.99
2017-10-01T12:48:50.835Z,99506.81
2017-10-01T12:51:22.230Z,99500.28
2017-10-01T12:54:02.735Z,99489.25
2017-10-01T12:56:35.532Z,99496.67
2017-10-01T12:59:08.354Z,99494.77
2017-10-01T13:01:43.808Z,99497.28
2017-10-01T13:04:16.483Z,99491.66
2017-10-01T13:06:48.637Z,99498.53
2017-10-01T13:09:19.810Z,99495.60
2017-10-01T13:11:54.358Z,99498.34
2017-10-01T13:14:25.632Z,99498.17
2017-10-01T13:16:56.294Z,99498.27
2017-10-01T13:19:27.571Z,99493.23
2017-10-01T13:21:59.009Z,99502.18
2017-10-01T13:24:32.519Z,99501.42
2017-10-01T13:27:04.029Z,99501.76
2017-10-01T13:29:34.886Z,99502.48
2017-10-01T13:32:05.899Z,99490.98
2017-10-01T13:34:37.347Z,99490.05
2017-10-01T13:37:08.099Z,99489.19
2017-10-01T13:39:39.563Z,99486.30
2017-10-01T13:42:10.117Z,99484.61
2017-10-01T13:44:41.759Z,99487.16
2017-10-01T13:47:12.765Z,99485.63
2017-10-01T13:49:43.587Z,99485.19
2017-10-01T13:52:14.411Z,99491.23
2017-10-01T13:54:45.898Z,99484.87
2017-10-01T13:57:17.983Z,99477.48
2017-10-01T13:59:49.569Z,99474.83
2017-10-01T14:02:20.872Z,99472.26
2017-10-01T14:04:53.100Z,99470.38
2017-10-01T14:07:24.620Z,99473.33
2017-10-01T14:09:56.764Z,99471.31
2017-10-01T14:12:27.817Z,99474.17
2017-10-01T14:15:03.020Z,99467.81
2017-10-01T14:17:33.555Z,99470.94
2017-10-01T14:20:04.202Z,99471.68
2017-10-01T14:22:35.093Z,99460.69
2017-10-01T14:25:05.939Z,99468.36
2017-10-01T14:27:37.011Z,99472.02
2017-10-01T14:30:11.173Z,99477.61
2017-10-01T14:32:41.940Z,99473.55
2017-10-01T14:35:15.076Z,99475.25
2017-10-01T14:37:48.891Z,99476.06
2017-10-01T14:40:20.584Z,99470.43
2017-10-01T14:42:55.550Z,99469.71
2017-10-01T14:45:26.560Z,99469.09
2017-10-01T14:48:00.166Z,99469.73
2017-10-01T14:50:32.494Z,99461.27
2017-10-01T14:53:07.377Z,99464.12
2017-10-01T14:55:38.530Z,99458.59
2017-10-01T14:58:10.079Z,99457.48
2017-10-01T15:00:42.407Z,99455.64
2017-10-01T15:03:14.237Z,99457.06
2017-10-01T15:05:45.282Z,99456.53
2017-10-01T15:08:16.102Z,99453.98
2017-10-01T15:10:47.043Z,99452.85
2017-10-01T15:13:18.864Z,99449.53
2017-10-01T15:15:51.127Z,99449.20
2017-10-01T15:18:22.199Z,99440.30
2017-10-01T15:20:52.764Z,99441.47
2017-10-01T15:23:23.574Z,99439.17
2017-10-01T15:25:54.791Z,99442.63
2017-10-01T15:28:32.168Z,99437.86
2017-10-01T15:31:10.618Z,99433.77
2017-10-01T15:33:41.703Z,99433.62
2017-10-01T15:36:15.762Z,99431.56
2017-10-01T15:38:47.735Z,99435.63
2017-10-01T15:41:19.008Z,99429.02
2017-10-01T15:43:49.811Z,99440.05
2017-10-01T15:46:20.452Z,99442.84
2017-10-01T15:48:51.591Z,99448.22
2017-10-01T15:51:22.733Z,99445.31
2017-10-01T15:53:55.823Z,99444.11
2017-10-01T15:56:32.304Z,99446.72
2017-10-01T15:59:07.791Z,99447.14
2017-10-01T16:01:40.758Z,99444.61
2017-10-01T16:04:13.341Z,99440.56
2017-10-01T16:06:44.697Z,99445.06
2017-10-01T16:09:16.954Z,99437.74
2017-10-01T16:11:47.990Z,99446.53
2017-10-01T16:14:19.903Z,99444.73
2017-10-01T16:16:51.084Z,99439.09
2017-10-01T16:19:21.898Z,99437.66
2017-10-01T16:21:53.309Z,99445.51
2017-10-01T16:24:24.941Z,99438.58
2017-10-01T16:26:56.457Z,99441.79
2017-10-01T16:29:27.931Z,99444.20
2017-10-01T16:31:59.346Z,99443.39
2017-10-01T16:34:31.785Z,99443.67
2017-10-01T16:37:03.830Z,99443.94
2017-10-01T16:39:36.476Z,99434.61
2017-10-01T16:42:11.235Z,99431.70
2017-10-01T16:44:42.710Z,99432.55
2017-10-01T16:47:13.532Z,99436.95
2017-10-01T16:49:44.260Z,99426.88
2017-10-01T16:52:15.444Z,99431.70
2017-10-01T16:54:48.357Z,99432.32
2017-10-01T16:57:21.380Z,99428.53
2017-10-01T16:59:54.462Z,99437.86
2017-10-01T17:02:25.843Z,99438.80
2017-10-01T17:04:57.364Z,99440.20
2017-10-01T17:07:29.068Z,99438.20
2017-10-01T17:10:00.963Z,99450.13
2017-10-01T17:12:35.626Z,99447.45
2017-10-01T17:15:13.158Z,99446.66
2017-10-01T17:17:44.506Z,99449.54
2017-10-01T17:20:16.501Z,99450.97
2017-10-01T17:22:54.682Z,99448.34
2017-10-01T17:28:26.574Z,99446.80
2017-10-01T17:30:59.010Z,99451.20
2017-10-01T17:33:29.999Z,99450.50
2017-10-01T17:36:06.733Z,99454.59
2017-10-01T17:38:43.569Z,99461.16
2017-10-01T17:41:15.652Z,99460.86
2017-10-01T17:43:47.203Z,99457.18
2017-10-01T17:46:29.357Z,99461.52
2017-10-01T17:49:01.047Z,99464.09
2017-10-01T17:51:33.014Z,99457.55
2017-10-01T17:54:09.410Z,99459.66
2017-10-01T17:56:41.426Z,99456.96
2017-10-01T17:59:14.182Z,99463.29
2017-10-01T18:01:45.238Z,99461.08
2017-10-01T18:04:16.459Z,99461.95
2017-10-01T18:06:48.440Z,99454.96
2017-10-01T18:09:21.119Z,99458.55
2017-10-01T18:11:53.784Z,99458.48
2017-10-01T18:14:25.943Z,99453.88
2017-10-01T18:16:56.487Z,99457.31
2017-10-01T18:19:27.366Z,99462.76
2017-10-01T18:21:59.965Z,99459.87
2017-10-01T18:24:32.458Z,99459.80
2017-10-01T18:27:05.498Z,99457.80
2017-10-01T18:29:36.720Z,99457.19
2017-10-01T18:32:09.487Z,99459.55
2017-10-01T18:34:45.852Z,99458.11
2017-10-01T18:37:24.786Z,99447.98
2017-10-01T18:39:56.554Z,99442.74
2017-10-01T18:42:29.922Z,99439.23
2017-10-01T18:48:43.214Z,99440.66
2017-10-01T18:51:15.037Z,99443.32
2017-10-01T18:53:46.441Z,99443.45
2017-10-01T18:56:17.825Z,99444.47
2017-10-01T18:58:49.602Z,99449.61
2017-10-01T19:01:21.577Z,99444.77
2017-10-01T19:03:52.984Z,99446.59
2017-10-01T19:06:26.077Z,99444.09
2017-10-01T19:09:02.322Z,99451.73
2017-10-01T19:11:34.258Z,99450.13
2017-10-01T19:14:06.498Z,99452.11
2017-10-01T19:16:51.480Z,99447.50
2017-10-01T19:19:23.467Z,99453.55
2017-10-01T19:22:02.049Z,99452.61
2017-10-01T19:24:34.173Z,99457.67
2017-10-01T19:27:07.030Z,99454.22
2017-10-01T19:29:39.448Z,99458.52
2017-10-01T19:32:15.842Z,99457.95
2017-10-01T19:34:48.560Z,99451.69
2017-10-01T19:37:20.202Z,99448.53
2017-10-01T19:39:50.990Z,99448.95
2017-10-01T19:42:23.047Z,99444.47
2017-10-01T19:44:58.454Z,99441.49
2017-10-01T19:47:30.633Z,99441.62
2017-10-01T19:50:04.825Z,99444.53
2017-10-01T19:52:43.444Z,99447.06
2017-10-01T19:55:25.655Z,99448.59
2017-10-01T19:57:57.573Z,99450.59
2017-10-01T20:00:29.228Z,99446.77
2017-10-01T20:03:01.210Z,99445.64
2017-10-01T20:05:31.897Z,99455.23
2017-10-01T20:08:05.423Z,99455.28
2017-10-01T20:10:36.757Z,99455.25
2017-10-01T20:13:08.893Z,99456.97
2017-10-01T20:15:40.853Z,99448.89
2017-10-01T20:18:14.676Z,99446.66
2017-10-01T20:20:46.099Z,99445.30
2017-10-01T20:23:19.420Z,99439.55
2017-10-01T20:25:51.241Z,99443.88
2017-10-01T20:28:22.784Z,99446.67
2017-10-01T20:30:53.608Z,99447.52
2017-10-01T20:33:25.485Z,99448.16
2017-10-01T20:35:56.637Z,99448.58
2017-10-01T20:38:29.683Z,99444.52
2017-10-01T20:41:01.499Z,99449.43
2017-10-01T20:43:35.766Z,99447.09
2017-10-01T20:46:08.216Z,99446.69
2017-10-01T20:48:44.332Z,99447.54
2017-10-01T20:51:19.428Z,99446.23
2017-10-01T20:53:55.142Z,99447.25
2017-10-01T20:56:26.802Z,99442.89
2017-10-01T20:59:01.461Z,99441.08
2017-10-01T21:01:43.639Z,99439.39
2017-10-01T21:04:17.644Z,99437.34
2017-10-01T21:06:49.863Z,99437.41
2017-10-01T21:12:19.698Z,99450.14
2017-10-01T21:15:33.502Z,99441.77
2017-10-01T21:18:17.990Z,99442.38
2017-10-01T21:20:58.581Z,99447.71
2017-10-01T21:23:35.132Z,99442.09
2017-10-01T21:26:07.404Z,99441.25
2017-10-01T21:28:40.553Z,99431.92
2017-10-01T21:31:12.011Z,99429.02
2017-10-01T21:33:45.112Z,99422.98
2017-10-01T21:36:17.989Z,99421.87
2017-10-01T21:38:51.275Z,99421.66
2017-10-01T21:41:22.298Z,99421.78
2017-10-01T21:43:53.144Z,99416.75
2017-10-01T21:46:24.301Z,99415.48
2017-10-01T21:48:56.215Z,99418.27
2017-10-01T21:51:29.733Z,99410.50
2017-10-01T21:54:01.469Z,99408.88
2017-10-01T21:56:32.352Z,99401.51
2017-10-01T21:59:05.562Z,99394.72
2017-10-01T22:01:36.798Z,99400.23
2017-10-01T22:04:09.431Z,99390.43
2017-10-01T22:06:41.281Z,99388.06
2017-10-01T22:09:12.680Z,99389.59
2017-10-01T22:11:46.077Z,99383.77
2017-10-01T22:14:17.293Z,99374.13
2017-10-01T22:16:48.470Z,99377.05
2017-10-01T22:19:19.832Z,99371.08
2017-10-01T22:21:50.501Z,99374.02
2017-10-01T22:24:21.169Z,99367.44
2017-10-01T22:26:52.319Z,99371.27
2017-10-01T22:29:26.292Z,99375.97
2017-10-01T22:31:58.012Z,99365.94
2017-10-01T22:34:29.765Z,99356.84
2017-10-01T22:37:01.487Z,99352.39
2017-10-01T22:39:32.798Z,99348.29
2017-10-01T22:42:07.001Z,99346.77
2017-10-01T22:44:38.410Z,99349.06
2017-10-01T22:47:11.193Z,99346.95
2017-10-01T22:49:43.514Z,99349.74
2017-10-01T22:52:14.498Z,99337.81
2017-10-01T22:54:45.352Z,99334.08
2017-10-01T22:57:16.945Z,99330.45
2017-10-01T22:59:52.289Z,99330.67
2017-10-01T23:02:24.488Z,99329.11
2017-10-01T23:04:55.978Z,99328.63
2017-10-01T23:07:30.588Z,99333.70
2017-10-01T23:10:04.472Z,99328.70
2017-10-01T23:12:35.832Z,99328.20
2017-10-01T23:15:07.308Z,99334.34
2017-10-01T23:17:38.791Z,99333.23
2017-10-01T23:20:12.608Z,99326.91
2017-10-01T23:22:48.987Z,99316.75
2017-10-01T23:25:20.694Z,99323.31
2017-10-01T23:27:51.507Z,99320.13
2017-10-01T23:30:23.168Z,99324.03
2017-10-01T23:32:55.323Z,99318.80
2017-10-01T23:35:28.075Z,99313.98
2017-10-01T23:37:59.271Z,99310.77
2017-10-01T23:40:30.487Z,99313.02
2017-10-01T23:43:06.734Z,99308.66
2017-10-01T23:45:37.479Z,99315.15
2017-10-01T23:48:10.889Z,99307.95
2017-10-01T23:50:42.872Z,99303.38
2017-10-01T23:53:14.369Z,99297.11
2017-10-01T23:55:48.287Z,99289.61
2017-10-01T23:58:24.093Z,99289.45
